Time;durP1;ratioP1;P1;durP2;ratioP2;P2;SDS_P1;SDS_P2;PMS_P1;PMS_P2;Temp;Humidity;BMP_temperature;BMP_pressure;BME280_temperature;BME280_humidity;BME280_pressure;Samples;Min_cycle;Max_cycle;Signal;HPM_P1;HPM_P2
2022/01/20 00:01:48;;;;;;;2.00;0.75;;;;;;;1.12;73.19;99888.59;5071860;28;20095;-74
2022/01/20 00:04:22;;;;;;;4.78;0.93;;;;;;;1.08;73.55;99908.88;5043139;28;20016;-74
2022/01/20 00:09:47;;;;;;;3.92;1.05;;;;;;;1.06;72.28;99878.78;5038777;28;20106;-73
2022/01/20 00:28:27;;;;;;;8.80;0.68;;;;;;;1.18;70.43;99941.34;5069557;28;20058;-74
2022/01/20 00:31:03;;;;;;;2.78;1.83;;;;;;;1.18;69.52;99930.59;5052103;28;20488;-73
2022/01/20 00:33:35;;;;;;;2.58;0.45;;;;;;;1.19;69.06;99932.22;5049155;28;20036;-73
2022/01/20 00:38:32;;;;;;;1.48;0.30;;;;;;;1.18;67.41;99941.34;5048658;28;20103;-73
2022/01/20 00:40:57;;;;;;;8.85;1.13;;;;;;;1.19;66.69;99931.41;5036679;28;20474;-73
2022/01/20 00:43:23;;;;;;;2.78;0.80;;;;;;;1.19;65.94;99963.63;5046341;28;20466;-73
2022/01/20 00:45:49;;;;;;;0.50;0.22;;;;;;;1.18;66.24;99946.72;5052276;28;20088;-73
2022/01/20 00:48:14;;;;;;;1.80;0.70;;;;;;;1.17;66.20;99971.09;5074368;28;20031;-73
2022/01/20 00:50:39;;;;;;;1.42;0.65;;;;;;;1.16;65.83;99969.47;5053187;28;20062;-73
2022/01/20 00:53:05;;;;;;;4.80;1.48;;;;;;;1.18;65.75;99965.50;5062152;28;20046;-73
2022/01/20 00:55:30;;;;;;;4.35;0.65;;;;;;;1.22;66.42;99942.50;5068373;28;20200;-72
2022/01/20 00:57:56;;;;;;;5.40;1.67;;;;;;;1.26;66.29;99970.53;5071946;28;20477;-73
2022/01/20 01:00:21;;;;;;;1.98;0.60;;;;;;;1.28;66.51;99941.59;5044025;28;20056;-73
2022/01/20 01:02:47;;;;;;;4.38;0.65;;;;;;;1.29;64.58;99959.31;5065611;28;20024;-73
2022/01/20 01:05:12;;;;;;;4.72;0.70;;;;;;;1.32;64.00;99980.34;5065750;28;20017;-73
2022/01/20 01:10:10;;;;;;;3.22;1.00;;;;;;;1.32;62.97;99961.53;5057807;28;20469;-73
2022/01/20 01:12:49;;;;;;;3.70;0.52;;;;;;;1.27;62.09;99956.03;5060777;28;20436;-73
2022/01/20 01:15:22;;;;;;;2.58;0.68;;;;;;;1.20;61.62;99950.00;5062831;28;20017;-73
2022/01/20 01:20:46;;;;;;;5.28;0.57;;;;;;;1.07;61.41;99985.91;5064245;28;20117;-74
2022/01/20 01:23:12;;;;;;;0.57;0.57;;;;;;;1.03;61.31;99933.72;5050083;28;20059;-73
2022/01/20 01:25:39;;;;;;;2.25;1.33;;;;;;;1.00;59.47;99962.91;5035736;28;20103;-74
2022/01/20 01:28:04;;;;;;;1.30;0.45;;;;;;;1.00;59.51;99960.22;5070769;28;20023;-73
2022/01/20 01:33:13;;;;;;;4.30;0.85;;;;;;;0.98;59.73;99978.41;5071725;28;20042;-73
2022/01/20 01:35:41;;;;;;;2.42;1.25;;;;;;;0.98;59.88;99999.88;5070134;28;20036;-73
2022/01/20 01:40:35;;;;;;;6.10;0.90;;;;;;;0.98;59.01;100019.50;5036350;28;20032;-74
2022/01/20 01:43:05;;;;;;;6.07;0.95;;;;;;;1.01;59.15;100042.34;5076754;28;20396;-74
2022/01/20 01:45:33;;;;;;;4.47;1.00;;;;;;;1.03;58.68;100041.09;5056232;28;20013;-73
2022/01/20 01:47:59;;;;;;;2.85;0.70;;;;;;;1.01;57.30;99968.06;5050011;28;20078;-73
2022/01/20 01:50:24;;;;;;;7.30;1.05;;;;;;;1.00;56.60;100005.84;5047074;28;20024;-73
2022/01/20 01:52:50;;;;;;;5.95;1.08;;;;;;;1.03;57.16;100006.19;5066059;28;20485;-74
2022/01/20 01:55:15;;;;;;;10.02;0.77;;;;;;;1.03;58.42;100014.25;5069386;28;20498;-74
2022/01/20 01:57:41;;;;;;;2.42;1.25;;;;;;;1.04;57.92;100023.94;5070058;28;20033;-73
2022/01/20 02:00:07;;;;;;;2.05;0.80;;;;;;;1.01;57.68;99994.91;5054638;28;20032;-74
2022/01/20 02:02:33;;;;;;;0.50;0.25;;;;;;;1.01;56.80;100026.25;5077147;28;20036;-73
2022/01/20 02:04:58;;;;;;;1.33;0.55;;;;;;;0.97;55.93;100014.34;5055774;28;20115;-73
2022/01/20 02:18:36;;;;;;;3.90;1.20;;;;;;;1.01;57.92;100023.56;5066574;28;20031;-73
2022/01/20 02:21:01;;;;;;;5.97;1.50;;;;;;;1.04;57.38;100049.97;5056121;28;20045;-73
2022/01/20 02:23:27;;;;;;;2.70;0.60;;;;;;;1.05;57.33;100027.44;5039995;28;20029;-73
2022/01/20 02:25:52;;;;;;;3.53;0.95;;;;;;;1.06;57.40;100051.38;5051142;28;20038;-74
2022/01/20 02:28:18;;;;;;;2.45;0.65;;;;;;;1.10;57.22;100059.78;5074151;28;20044;-73
2022/01/20 02:30:43;;;;;;;6.18;1.23;;;;;;;1.10;56.60;100057.09;5072936;28;20029;-73
2022/01/20 02:33:11;;;;;;;5.03;1.23;;;;;;;1.13;56.83;100077.31;5056518;28;20058;-73
2022/01/20 02:35:44;;;;;;;1.20;0.50;;;;;;;1.10;56.25;100051.75;5054371;28;20067;-73
2022/01/20 02:38:18;;;;;;;5.95;0.95;;;;;;;1.10;56.24;100054.41;5054514;28;20036;-74
2022/01/20 02:45:54;;;;;;;5.60;1.23;;;;;;;1.07;56.73;100057.56;5058176;28;20118;-73
2022/01/20 02:48:19;;;;;;;4.28;0.65;;;;;;;1.09;57.20;100066.19;5052169;28;20072;-73
2022/01/20 02:50:45;;;;;;;4.00;0.70;;;;;;;1.09;56.63;100066.19;5055898;28;20028;-74
2022/01/20 02:53:10;;;;;;;3.25;1.00;;;;;;;1.09;56.65;100066.19;5072742;28;20043;-74
2022/01/20 02:55:35;;;;;;;0.35;0.20;;;;;;;1.11;56.04;100070.28;5048569;28;20028;-74
2022/01/20 02:58:01;;;;;;;2.63;0.75;;;;;;;1.18;56.16;100021.88;5051999;28;20029;-73
2022/01/20 03:00:26;;;;;;;5.90;1.10;;;;;;;1.24;56.15;100076.53;5066005;28;20390;-73
2022/01/20 03:02:52;;;;;;;2.60;0.98;;;;;;;1.28;56.34;100072.31;5043180;28;20025;-73
2022/01/20 03:05:17;;;;;;;1.25;0.75;;;;;;;1.28;56.20;100083.88;5072688;28;20373;-73
2022/01/20 03:07:45;;;;;;;7.78;1.70;;;;;;;1.27;56.25;100068.00;5058580;28;20040;-73
2022/01/20 03:10:10;;;;;;;3.63;1.00;;;;;;;1.26;56.71;100040.34;5070388;28;20532;-73
2022/01/20 03:12:36;;;;;;;4.22;0.57;;;;;;;1.24;56.00;100055.84;5070958;28;20088;-73
2022/01/20 03:15:01;;;;;;;2.83;0.98;;;;;;;1.27;55.24;100060.75;5053430;28;20025;-74
2022/01/20 03:17:27;;;;;;;4.55;0.77;;;;;;;1.28;56.14;100069.63;5061028;28;20491;-73
2022/01/20 03:19:52;;;;;;;1.13;0.50;;;;;;;1.23;56.11;100045.34;5060226;28;20025;-73
2022/01/20 03:22:17;;;;;;;2.47;0.60;;;;;;;1.23;55.29;100109.78;5052129;28;20358;-73
2022/01/20 03:24:43;;;;;;;1.25;0.35;;;;;;;1.23;56.29;100051.53;5051176;28;20091;-74
2022/01/20 03:27:08;;;;;;;1.15;0.38;;;;;;;1.24;55.81;100058.53;5031636;28;20504;-73
2022/01/20 03:29:33;;;;;;;2.35;0.60;;;;;;;1.25;55.28;100032.50;5068926;28;20029;-73
2022/01/20 03:31:59;;;;;;;2.92;0.82;;;;;;;1.28;56.66;100073.16;5032677;28;20036;-74
2022/01/20 03:34:24;;;;;;;1.88;0.43;;;;;;;1.31;57.23;100069.19;5070380;28;20012;-74
2022/01/20 03:36:50;;;;;;;2.72;1.05;;;;;;;1.32;57.43;100076.19;5066099;28;20036;-74
2022/01/20 03:39:15;;;;;;;2.20;0.80;;;;;;;1.34;57.93;100068.72;5058963;28;20025;-73
2022/01/20 03:41:41;;;;;;;6.68;0.93;;;;;;;1.36;58.61;100093.47;5072044;28;20032;-73
2022/01/20 03:44:06;;;;;;;1.13;0.70;;;;;;;1.38;57.70;100042.22;5067326;28;20025;-74
2022/01/20 03:46:32;;;;;;;0.52;0.30;;;;;;;1.40;56.22;100081.22;5050437;28;20047;-74
2022/01/20 03:49:08;;;;;;;4.57;1.00;;;;;;;1.43;56.90;100096.06;5023377;28;20036;-74
2022/01/20 03:51:33;;;;;;;3.67;0.40;;;;;;;1.43;57.24;100088.00;5042566;28;20103;-73
2022/01/20 03:53:58;;;;;;;1.35;0.70;;;;;;;1.42;58.32;100070.22;5044597;28;20044;-74
2022/01/20 03:56:24;;;;;;;2.60;1.17;;;;;;;1.42;57.62;100070.22;5037930;28;20028;-74
2022/01/20 03:58:50;;;;;;;1.88;0.85;;;;;;;1.41;57.04;100106.22;5052050;28;20433;-74
2022/01/20 04:01:16;;;;;;;2.38;0.65;;;;;;;1.40;57.12;100091.16;5043051;28;20025;-73
2022/01/20 04:03:41;;;;;;;5.00;0.50;;;;;;;1.40;57.07;100088.47;5048733;28;20075;-74
2022/01/20 04:06:08;;;;;;;4.55;0.65;;;;;;;1.43;57.01;100101.44;5050153;28;20024;-73
2022/01/20 04:08:35;;;;;;;2.90;0.70;;;;;;;1.42;56.24;100111.38;5066142;28;20028;-74
2022/01/20 04:11:03;;;;;;;3.72;1.40;;;;;;;1.41;57.92;100101.66;5055121;28;20016;-76
2022/01/20 04:13:30;;;;;;;1.55;0.50;;;;;;;1.40;57.38;100124.19;5052526;28;20032;-74
2022/01/20 04:15:59;;;;;;;2.08;0.82;;;;;;;1.40;58.24;100128.75;5068365;28;20033;-74
2022/01/20 04:18:26;;;;;;;2.60;0.88;;;;;;;1.39;57.84;100105.59;5071623;28;20024;-73
2022/01/20 04:20:54;;;;;;;0.57;0.32;;;;;;;1.40;58.47;100109.94;5065247;28;20480;-74
2022/01/20 04:23:19;;;;;;;2.13;0.43;;;;;;;1.39;58.36;100132.47;5071254;28;20084;-73
2022/01/20 04:25:44;;;;;;;1.10;0.65;;;;;;;1.40;58.30;100101.91;5054044;28;20026;-73
2022/01/20 04:28:11;;;;;;;6.47;0.85;;;;;;;1.42;58.25;100150.81;5049611;28;20755;-74
2022/01/20 04:30:36;;;;;;;0.73;0.45;;;;;;;1.40;58.24;100123.38;5067768;28;20048;-73
2022/01/20 04:33:02;;;;;;;4.32;1.20;;;;;;;1.42;57.29;100204.53;5050718;28;20028;-74
2022/01/20 04:35:27;;;;;;;1.08;0.60;;;;;;;1.44;57.38;100132.59;5049085;28;20020;-74
2022/01/20 04:37:54;;;;;;;4.75;0.60;;;;;;;1.46;56.89;100186.91;5034709;28;20404;-74
2022/01/20 04:40:20;;;;;;;2.15;0.90;;;;;;;1.47;55.03;100129.44;5061850;28;20029;-74
2022/01/20 04:42:47;;;;;;;1.45;0.52;;;;;;;1.48;54.37;100179.47;5063971;28;20025;-74
2022/01/20 04:45:18;;;;;;;1.55;0.93;;;;;;;1.48;56.16;100147.22;5034436;28;20017;-74
2022/01/20 04:58:21;;;;;;;2.88;1.05;;;;;;;1.44;55.85;100240.03;5044708;28;20031;-73
2022/01/20 05:00:46;;;;;;;1.02;0.40;;;;;;;1.45;55.49;100210.28;5068951;28;20036;-74
2022/01/20 05:03:12;;;;;;;2.67;0.82;;;;;;;1.46;56.64;100228.03;5067484;28;20020;-74
2022/01/20 05:05:37;;;;;;;1.27;0.45;;;;;;;1.47;55.57;100240.41;5070387;28;20029;-74
2022/01/20 05:08:02;;;;;;;2.38;0.63;;;;;;;1.47;56.21;100264.59;5052815;28;20597;-74
2022/01/20 05:10:30;;;;;;;3.60;0.55;;;;;;;1.49;57.14;100264.34;5049048;28;20397;-73
2022/01/20 05:15:23;;;;;;;0.60;0.30;;;;;;;1.57;56.86;100247.09;5049171;28;20064;-74
2022/01/20 05:17:49;;;;;;;1.67;0.57;;;;;;;1.58;56.99;100260.28;5069155;28;20074;-74
2022/01/20 05:20:14;;;;;;;6.03;1.27;;;;;;;1.63;56.85;100265.81;5070707;28;20112;-74
2022/01/20 05:22:39;;;;;;;3.65;0.68;;;;;;;1.66;57.78;100264.53;5063684;28;20466;-74
2022/01/20 05:25:05;;;;;;;3.03;0.47;;;;;;;1.69;57.27;100294.47;5049196;28;20028;-74
2022/01/20 05:27:31;;;;;;;2.42;0.63;;;;;;;1.74;56.26;100275.78;5046550;28;20039;-74
2022/01/20 05:29:57;;;;;;;2.30;0.57;;;;;;;1.79;55.96;100280.47;5043536;28;20017;-74
2022/01/20 05:32:22;;;;;;;2.13;0.65;;;;;;;1.82;56.94;100257.69;5042005;28;20052;-74
2022/01/20 05:34:48;;;;;;;0.95;0.25;;;;;;;1.84;56.17;100277.13;5070762;28;20434;-73
2022/01/20 05:37:13;;;;;;;1.50;0.70;;;;;;;1.86;57.31;100320.72;5043255;28;20071;-74
2022/01/20 05:39:39;;;;;;;3.90;1.13;;;;;;;1.89;57.28;100304.13;5047191;28;20452;-74
2022/01/20 05:42:04;;;;;;;1.80;0.80;;;;;;;1.93;56.94;100287.28;5048923;28;20021;-75
2022/01/20 05:44:30;;;;;;;1.63;0.70;;;;;;;1.97;57.42;100279.63;5055350;28;20035;-74
2022/01/20 05:46:55;;;;;;;0.85;0.57;;;;;;;2.01;56.52;100329.16;5042291;28;20037;-74
2022/01/20 05:49:21;;;;;;;1.73;0.30;;;;;;;2.00;56.97;100330.22;5066857;28;20032;-74
2022/01/20 05:51:52;;;;;;;3.28;1.23;;;;;;;2.00;57.33;100324.84;5036490;28;20465;-74
2022/01/20 05:54:18;;;;;;;0.93;0.80;;;;;;;2.01;57.54;100339.94;5069506;28;20029;-73
2022/01/20 05:56:43;;;;;;;5.32;0.65;;;;;;;1.99;57.76;100340.16;5044905;28;20277;-74
2022/01/20 05:59:08;;;;;;;1.05;0.45;;;;;;;2.02;58.44;100333.53;5049883;28;20031;-74
2022/01/20 06:01:37;;;;;;;2.80;0.50;;;;;;;2.06;58.09;100344.63;5063086;28;20100;-73
2022/01/20 06:04:02;;;;;;;2.22;1.30;;;;;;;2.08;58.26;100332.59;5055479;28;20027;-74
2022/01/20 06:06:28;;;;;;;0.43;0.40;;;;;;;2.10;58.41;100349.34;5051988;28;20036;-74
2022/01/20 06:08:53;;;;;;;1.73;0.32;;;;;;;2.15;57.67;100338.69;5046688;28;20040;-74
2022/01/20 06:11:18;;;;;;;2.45;0.73;;;;;;;2.18;58.77;100353.53;5050619;28;20117;-74
2022/01/20 06:13:44;;;;;;;1.98;0.50;;;;;;;2.18;57.24;100359.75;5054462;28;20028;-74
2022/01/20 06:16:10;;;;;;;3.22;0.90;;;;;;;2.18;57.61;100375.91;5051724;28;20028;-73
2022/01/20 06:18:35;;;;;;;3.92;0.90;;;;;;;2.19;58.42;100387.47;5066701;28;20024;-74
2022/01/20 06:21:01;;;;;;;4.40;0.60;;;;;;;2.21;58.00;100396.94;5052679;28;20051;-74
2022/01/20 06:23:26;;;;;;;6.03;0.70;;;;;;;2.22;57.14;100382.44;5071780;28;20020;-74
2022/01/20 06:25:51;;;;;;;3.03;0.57;;;;;;;2.22;57.78;100393.19;5073071;28;20020;-74
2022/01/20 06:28:17;;;;;;;3.22;0.88;;;;;;;2.25;58.59;100401.88;5061360;28;20025;-74
2022/01/20 06:30:42;;;;;;;1.27;0.40;;;;;;;2.23;57.43;100378.69;5055896;28;20052;-74
2022/01/20 06:33:08;;;;;;;0.75;0.25;;;;;;;2.27;57.01;100394.41;5042196;28;20504;-74
2022/01/20 06:35:33;;;;;;;0.93;0.20;;;;;;;2.26;55.40;100403.50;5081259;28;20029;-74
2022/01/20 06:37:59;;;;;;;1.98;0.30;;;;;;;2.26;54.83;100415.06;5070815;28;20024;-74
2022/01/20 06:40:24;;;;;;;3.17;0.73;;;;;;;2.28;55.83;100412.97;5082614;28;20028;-74
2022/01/20 06:42:50;;;;;;;1.77;0.50;;;;;;;2.31;55.38;100430.53;5071341;28;20028;-74
2022/01/20 06:45:16;;;;;;;1.60;0.75;;;;;;;2.29;55.77;100395.81;5043282;28;20362;-74
2022/01/20 06:47:42;;;;;;;4.20;0.50;;;;;;;2.31;55.66;100439.41;5053656;28;20027;-74
2022/01/20 06:50:08;;;;;;;1.05;0.35;;;;;;;2.31;55.21;100470.88;5066980;28;20029;-74
2022/01/20 06:52:34;;;;;;;3.80;0.68;;;;;;;2.32;55.60;100451.00;5053540;28;20033;-74
2022/01/20 06:55:00;;;;;;;3.08;0.73;;;;;;;2.30;55.82;100485.41;5054389;28;20386;-73
2022/01/20 06:57:26;;;;;;;0.30;0.20;;;;;;;2.28;55.53;100460.59;5073231;28;20437;-74
2022/01/20 06:59:51;;;;;;;2.17;0.60;;;;;;;2.26;55.15;100463.47;5073486;28;20119;-73
2022/01/20 07:02:16;;;;;;;0.98;0.40;;;;;;;2.26;54.55;100486.88;5052888;28;20062;-73
2022/01/20 07:04:43;;;;;;;1.95;0.45;;;;;;;2.25;55.52;100461.03;5065795;28;20029;-76
2022/01/20 07:07:09;;;;;;;0.95;0.50;;;;;;;2.26;54.31;100481.50;5035730;28;20423;-74
2022/01/20 07:09:34;;;;;;;2.20;0.57;;;;;;;2.26;54.36;100482.31;5068968;28;20024;-73
2022/01/20 07:12:01;;;;;;;0.90;0.40;;;;;;;2.25;55.25;100493.31;5048170;28;20051;-73
2022/01/20 07:14:26;;;;;;;3.00;0.50;;;;;;;2.22;55.90;100519.59;5039752;28;20062;-74
2022/01/20 07:16:53;;;;;;;2.60;0.70;;;;;;;2.22;56.57;100481.97;5072204;28;20306;-75
2022/01/20 07:19:18;;;;;;;1.38;0.47;;;;;;;2.21;55.06;100504.53;5069784;28;20377;-74
2022/01/20 07:21:43;;;;;;;0.77;0.55;;;;;;;2.20;55.58;100521.69;5062025;28;20041;-75
2022/01/20 07:24:09;;;;;;;0.85;0.30;;;;;;;2.17;53.86;100530.22;5059151;28;20445;-75
2022/01/20 07:26:35;;;;;;;1.00;0.63;;;;;;;2.17;54.22;100535.59;5035581;28;20024;-75
2022/01/20 07:29:00;;;;;;;3.42;0.70;;;;;;;2.15;54.90;100505.41;5052358;28;20029;-75
2022/01/20 07:31:25;;;;;;;2.10;0.77;;;;;;;2.15;54.29;100520.72;5055008;28;20495;-75
2022/01/20 07:33:51;;;;;;;2.60;0.60;;;;;;;2.15;54.57;100510.78;5062327;28;20029;-75
2022/01/20 07:36:17;;;;;;;2.25;0.50;;;;;;;2.14;54.20;100536.03;5041555;28;20025;-75
2022/01/20 07:38:42;;;;;;;2.17;0.60;;;;;;;2.12;54.64;100527.38;5071806;28;20115;-74
2022/01/20 07:41:07;;;;;;;4.35;0.70;;;;;;;2.11;54.90;100557.19;5070878;28;20021;-74
2022/01/20 07:43:33;;;;;;;2.60;0.40;;;;;;;2.11;55.49;100558.00;5049672;28;20036;-75
2022/01/20 07:45:58;;;;;;;2.50;0.40;;;;;;;2.08;54.78;100585.34;5073994;28;20390;-76
2022/01/20 07:48:23;;;;;;;0.80;0.32;;;;;;;2.07;55.05;100553.28;5070756;28;20017;-74
2022/01/20 07:50:49;;;;;;;1.88;0.22;;;;;;;2.07;55.35;100567.56;5065235;28;20031;-75
2022/01/20 07:53:16;;;;;;;0.88;0.35;;;;;;;2.06;53.53;100533.66;5051698;28;20028;-74
2022/01/20 07:55:41;;;;;;;1.70;0.30;;;;;;;2.08;53.76;100541.50;5041389;28;20464;-74
2022/01/20 07:58:07;;;;;;;1.33;0.40;;;;;;;2.05;52.97;100532.03;5051064;28;20021;-76
2022/01/20 08:00:33;;;;;;;3.40;0.80;;;;;;;2.05;52.56;100591.19;5072107;28;20151;-74
2022/01/20 08:02:58;;;;;;;2.42;0.57;;;;;;;2.03;52.38;100560.19;5042000;28;20032;-75
2022/01/20 08:05:23;;;;;;;0.47;0.17;;;;;;;2.00;52.05;100583.75;5052204;28;20020;-75
2022/01/20 08:07:49;;;;;;;0.28;0.20;;;;;;;1.98;51.60;100596.59;5048399;28;20036;-75
2022/01/20 08:10:14;;;;;;;0.57;0.30;;;;;;;1.96;51.52;100589.81;5057962;28;20057;-76
2022/01/20 08:12:40;;;;;;;0.52;0.40;;;;;;;1.95;51.64;100590.84;5055158;28;20202;-76
2022/01/20 08:15:09;;;;;;;3.40;0.20;;;;;;;1.95;51.90;100602.44;5048509;28;20020;-75
2022/01/20 08:17:35;;;;;;;0.20;0.20;;;;;;;1.94;51.96;100610.72;5049342;28;20032;-75
2022/01/20 08:20:03;;;;;;;2.85;0.35;;;;;;;1.94;52.09;100643.00;5054045;28;20052;-75
2022/01/20 08:22:33;;;;;;;1.65;0.20;;;;;;;1.93;53.26;100609.06;5052476;28;20473;-75
2022/01/20 08:24:59;;;;;;;0.65;0.30;;;;;;;1.91;52.64;100608.44;5066549;28;20025;-75
2022/01/20 08:27:24;;;;;;;2.47;0.50;;;;;;;1.90;51.85;100609.50;5053202;28;20024;-77
2022/01/20 08:29:50;;;;;;;2.67;0.50;;;;;;;1.90;52.23;100626.47;5073443;28;20489;-76
2022/01/20 08:32:17;;;;;;;0.65;0.38;;;;;;;1.91;52.88;100611.16;5073845;28;20024;-79
2022/01/20 08:34:42;;;;;;;1.10;0.20;;;;;;;1.90;52.02;100620.25;5065412;28;20036;-79
2022/01/20 08:37:07;;;;;;;0.75;0.30;;;;;;;1.90;52.03;100631.84;5050482;28;20025;-79
2022/01/20 08:41:59;;;;;;;2.35;0.28;;;;;;;1.92;51.77;100655.81;5073634;28;20039;-79
2022/01/20 08:44:24;;;;;;;0.10;0.10;;;;;;;1.91;52.76;100638.88;5072204;28;20520;-79
2022/01/20 08:46:52;;;;;;;2.13;0.57;;;;;;;1.91;53.20;100670.28;5066127;28;20068;-79
2022/01/20 08:49:17;;;;;;;1.13;0.47;;;;;;;1.91;54.00;100656.84;5058463;28;20115;-79
2022/01/20 08:51:42;;;;;;;4.30;0.88;;;;;;;1.91;53.66;100670.28;5083102;28;20388;-79
2022/01/20 08:54:08;;;;;;;2.38;0.73;;;;;;;1.89;53.84;100664.34;5062144;28;20529;-79
2022/01/20 08:56:34;;;;;;;1.83;0.20;;;;;;;1.88;53.52;100654.59;5051652;28;20027;-79
2022/01/20 08:59:05;;;;;;;1.08;0.40;;;;;;;1.87;52.24;100634.97;5086425;28;20035;-79
2022/01/20 09:01:31;;;;;;;0.38;0.28;;;;;;;1.86;51.94;100662.91;5063690;28;20039;-79
2022/01/20 09:03:56;;;;;;;0.10;0.10;;;;;;;1.85;52.05;100657.72;5086750;28;20032;-79
2022/01/20 09:06:21;;;;;;;2.42;0.38;;;;;;;1.84;50.87;100642.66;5083901;28;20024;-79
2022/01/20 09:08:47;;;;;;;1.45;0.43;;;;;;;1.84;51.59;100674.91;5069377;28;20541;-79
2022/01/20 09:11:22;;;;;;;5.03;0.85;;;;;;;1.82;51.65;100690.44;5069581;28;20039;-79
2022/01/20 09:16:35;;;;;;;1.08;0.57;;;;;;;1.78;51.10;100693.56;5067644;28;20525;-79
2022/01/20 09:19:00;;;;;;;0.20;0.20;;;;;;;1.78;50.53;100671.25;5070330;28;20119;-79
2022/01/20 09:21:27;;;;;;;0.30;0.30;;;;;;;1.76;50.08;100692.94;5069827;28;20050;-81
2022/01/20 09:23:53;;;;;;;0.65;0.20;;;;;;;1.74;50.86;100689.63;5051170;28;20028;-75
2022/01/20 09:26:18;;;;;;;0.43;0.20;;;;;;;1.74;50.65;100692.31;5065514;28;20024;-75
2022/01/20 09:28:43;;;;;;;1.00;0.45;;;;;;;1.74;50.34;100719.19;5066476;28;20058;-75
2022/01/20 09:31:09;;;;;;;0.15;0.15;;;;;;;1.72;50.00;100753.56;5070492;28;20073;-76
2022/01/20 09:33:35;;;;;;;2.90;0.30;;;;;;;1.71;50.20;100716.94;5082843;28;20028;-79
2022/01/20 09:36:00;;;;;;;0.68;0.20;;;;;;;1.69;49.28;100743.25;5052691;28;20454;-79
2022/01/20 09:38:27;;;;;;;0.82;0.40;;;;;;;1.68;50.73;100738.88;5066870;28;20040;-78
2022/01/20 09:40:53;;;;;;;0.63;0.20;;;;;;;1.66;50.39;100743.66;5084076;28;20027;-80
2022/01/20 09:43:18;;;;;;;1.02;0.40;;;;;;;1.64;50.20;100737.69;5048906;28;20020;-79
2022/01/20 09:45:46;;;;;;;2.22;0.40;;;;;;;1.64;50.34;100745.75;5064145;28;20016;-79
2022/01/20 09:48:12;;;;;;;1.25;0.40;;;;;;;1.61;49.64;100732.75;5080628;28;20063;-79
2022/01/20 09:50:37;;;;;;;0.93;0.77;;;;;;;1.59;50.75;100728.63;5089821;28;20468;-79
2022/01/20 09:53:02;;;;;;;0.10;0.10;;;;;;;1.56;49.47;100759.44;5093826;28;20028;-81
2022/01/20 09:55:28;;;;;;;0.65;0.20;;;;;;;1.54;49.13;100772.25;5091535;28;20505;-78
2022/01/20 09:57:55;;;;;;;0.10;0.10;;;;;;;1.54;50.49;100796.44;5070633;28;20122;-81
2022/01/20 10:00:20;;;;;;;0.30;0.30;;;;;;;1.53;51.22;100778.69;5066736;28;20031;-80
2022/01/20 10:02:57;;;;;;;4.50;0.30;;;;;;;1.53;50.01;100795.63;5075306;28;20020;-81
2022/01/20 10:05:29;;;;;;;5.22;0.30;;;;;;;1.52;50.14;100822.69;5071364;28;20020;-78
2022/01/20 10:08:09;;;;;;;0.32;0.30;;;;;;;1.50;50.18;100830.97;5073204;28;20034;-78
2022/01/20 10:10:48;;;;;;;0.17;0.17;;;;;;;1.50;49.08;100797.88;5087282;28;20028;-80
2022/01/20 10:13:15;;;;;;;0.20;0.20;;;;;;;1.49;48.91;100818.56;5073975;28;20059;-78
2022/01/20 10:15:41;;;;;;;0.57;0.20;;;;;;;1.50;49.20;100814.00;5075643;28;20089;-80
2022/01/20 10:18:11;;;;;;;4.07;0.35;;;;;;;1.49;48.50;100828.47;5088755;28;20157;-79
2022/01/20 10:20:36;;;;;;;2.45;0.20;;;;;;;1.48;48.87;100816.94;5089366;28;20052;-77
2022/01/20 10:23:02;;;;;;;0.73;0.30;;;;;;;1.50;48.08;100835.50;5071484;28;20031;-77
2022/01/20 10:25:32;;;;;;;0.85;0.63;;;;;;;1.49;47.35;100813.19;5087905;28;20041;-79
2022/01/20 10:27:58;;;;;;;0.63;0.30;;;;;;;1.48;47.05;100837.59;5073130;28;20456;-79
2022/01/20 10:30:25;;;;;;;0.45;0.20;;;;;;;1.48;47.30;100840.28;5093450;28;20032;-78
2022/01/20 10:32:52;;;;;;;0.45;0.32;;;;;;;1.48;47.09;100832.22;5086806;28;20126;-79
2022/01/20 10:35:32;;;;;;;0.98;0.10;;;;;;;1.45;47.87;100816.53;5089424;28;20016;-76
2022/01/20 10:38:11;;;;;;;2.33;0.40;;;;;;;1.44;47.10;100833.66;5088690;28;20476;-74
2022/01/20 10:40:54;;;;;;;2.90;1.67;;;;;;;1.46;47.25;100871.91;5089022;28;20185;-75
2022/01/20 10:43:23;;;;;;;0.20;0.20;;;;;;;1.47;48.42;100881.59;5085469;28;20032;-75
2022/01/20 10:45:49;;;;;;;0.40;0.30;;;;;;;1.46;48.43;100861.97;5069630;28;20024;-77
2022/01/20 10:48:18;;;;;;;0.65;0.15;;;;;;;1.47;47.93;100868.16;5048130;28;20020;-76
2022/01/20 10:50:44;;;;;;;0.40;0.40;;;;;;;1.46;46.41;100875.41;5079413;28;20036;-75
2022/01/20 10:53:35;;;;;;;0.43;0.20;;;;;;;1.47;47.49;100870.84;5048215;28;20055;-76
2022/01/20 10:56:06;;;;;;;0.10;0.10;;;;;;;1.46;47.06;100883.47;5081067;28;20052;-75
2022/01/20 10:58:32;;;;;;;1.30;0.52;;;;;;;1.45;46.54;100889.88;5084209;28;20280;-75
2022/01/20 11:00:57;;;;;;;0.55;0.20;;;;;;;1.46;47.19;100888.03;5068139;28;20031;-75
2022/01/20 11:03:24;;;;;;;0.20;0.10;;;;;;;1.47;46.38;100895.03;5065475;28;20058;-75
2022/01/20 11:05:51;;;;;;;0.82;0.40;;;;;;;1.47;47.29;100890.50;5067458;28;20145;-75
2022/01/20 11:08:16;;;;;;;0.45;0.22;;;;;;;1.50;46.86;100899.97;5070395;28;20039;-77
2022/01/20 11:10:42;;;;;;;5.43;0.45;;;;;;;1.48;46.07;100876.03;5084663;28;20075;-77
2022/01/20 11:13:12;;;;;;;0.30;0.30;;;;;;;1.48;45.02;100861.78;5055013;28;20020;-81
2022/01/20 11:15:38;;;;;;;0.45;0.40;;;;;;;1.47;45.54;100868.16;5059055;28;20607;-81
2022/01/20 11:18:03;;;;;;;0.75;0.38;;;;;;;1.46;44.42;100878.09;5072706;28;20031;-77
2022/01/20 11:20:32;;;;;;;1.63;0.38;;;;;;;1.48;44.85;100880.59;5061614;28;20052;-77
2022/01/20 11:23:01;;;;;;;0.98;0.28;;;;;;;1.48;44.98;100859.09;5069523;28;20053;-78
2022/01/20 11:25:29;;;;;;;0.65;0.20;;;;;;;1.48;43.52;100894.84;5085270;28;20441;-78
2022/01/20 11:28:21;;;;;;;0.20;0.20;;;;;;;1.51;44.84;100893.59;5071065;28;20107;-78
2022/01/20 11:30:59;;;;;;;0.38;0.38;;;;;;;1.53;44.89;100921.91;5083271;28;20040;-79
2022/01/20 11:33:38;;;;;;;4.47;0.47;;;;;;;1.54;43.58;100949.59;5089905;28;20032;-78
2022/01/20 11:36:28;;;;;;;1.40;0.52;;;;;;;1.55;42.89;100914.47;5079932;28;20024;-78
2022/01/20 11:38:59;;;;;;;0.10;0.10;;;;;;;1.58;42.40;100932.00;5073572;28;20035;-78
2022/01/20 11:41:34;;;;;;;1.40;0.28;;;;;;;1.59;42.06;100933.66;5090492;28;20020;-78
2022/01/20 11:44:09;;;;;;;2.63;0.65;;;;;;;1.65;43.80;100950.81;5073052;28;20028;-78
2022/01/20 11:46:39;;;;;;;0.17;0.17;;;;;;;1.66;42.60;100942.50;5041205;28;20393;-78
2022/01/20 11:49:10;;;;;;;3.30;0.77;;;;;;;1.68;42.58;100951.19;5066914;28;20040;-78
2022/01/20 11:51:43;;;;;;;1.88;0.40;;;;;;;1.70;42.48;100954.50;5081182;28;20423;-77
2022/01/20 11:54:08;;;;;;;0.20;0.20;;;;;;;1.68;41.12;100894.75;5070975;28;20024;-79
2022/01/20 11:56:38;;;;;;;2.67;0.88;;;;;;;1.70;41.60;100940.25;5058685;28;20111;-78
2022/01/20 11:59:04;;;;;;;0.22;0.10;;;;;;;1.70;41.43;100943.75;5066678;28;20472;-79
2022/01/20 12:01:30;;;;;;;1.55;0.30;;;;;;;1.68;41.32;100948.50;5082971;28;20024;-79
2022/01/20 12:03:56;;;;;;;1.45;0.30;;;;;;;1.71;41.88;100955.31;5086540;28;20093;-79
2022/01/20 12:06:26;;;;;;;4.03;0.32;;;;;;;1.74;42.00;100998.72;5085288;28;20027;-78
2022/01/20 12:09:02;;;;;;;3.05;0.43;;;;;;;1.75;41.65;100960.06;5069056;28;20077;-79
2022/01/20 12:11:35;;;;;;;2.20;0.57;;;;;;;1.77;40.47;100966.06;5086090;28;20047;-78
2022/01/20 12:14:00;;;;;;;1.38;0.35;;;;;;;1.78;40.68;100956.97;5079209;28;20107;-86
2022/01/20 12:16:25;;;;;;;0.73;0.32;;;;;;;1.80;40.70;100935.25;5069597;28;20024;-84
2022/01/20 12:18:58;;;;;;;0.65;0.30;;;;;;;1.81;40.71;100982.59;5087412;28;20036;-84
2022/01/20 12:21:23;;;;;;;;;;;;;;;1.82;39.92;100995.00;5070989;28;20101;-85
2022/01/20 12:23:48;;;;;;;1.05;0.47;;;;;;;1.89;42.25;100995.81;5091072;28;20189;-82
2022/01/20 12:26:14;;;;;;;0.90;0.35;;;;;;;1.93;42.02;101002.41;5072426;28;20051;-83
2022/01/20 12:28:39;;;;;;;1.75;0.73;;;;;;;1.92;40.25;100997.25;5070773;28;20530;-83
2022/01/20 12:31:05;;;;;;;0.88;0.43;;;;;;;1.97;40.56;101018.97;5055915;28;20028;-82
2022/01/20 12:33:32;;;;;;;0.20;0.20;;;;;;;2.05;42.08;101005.28;5087631;28;20118;-85
2022/01/20 12:36:03;;;;;;;2.08;0.30;;;;;;;2.14;42.73;101022.00;5066629;28;20401;-85
2022/01/20 12:38:36;;;;;;;0.57;0.32;;;;;;;2.16;43.11;100991.16;5039066;28;20737;-84
2022/01/20 12:41:02;;;;;;;1.15;0.40;;;;;;;2.10;43.26;101027.00;5089653;28;20045;-85